Terminal Aerodrome Forecast
Issued by NWS

Home | Current Version | Previous Version | Text Only | Print | Product List | Glossary On
Versions: 1 2 3 4 5 6 7 8 9 10 11 12 13 14 15
910
FTUS46 KSTO 111124
TAFSCK
TAF
KSCK 111124Z 1112/1212 12003KT 3SM BR BKN250
      TEMPO 1113/1116 1SM BR MIFG
     FM111900 29005KT P6SM BKN250=

USA.gov is the U.S. government's official web portal to all federal, state and local government web resources and services.